Time;durP1;ratioP1;P1;durP2;ratioP2;P2;SDS_P1;SDS_P2;PMS_P1;PMS_P2;Temp;Humidity;BMP_temperature;BMP_pressure;BME280_temperature;BME280_humidity;BME280_pressure;Samples;Min_cycle;Max_cycle;Signal;HPM_P1;HPM_P2
2022/01/23 00:01:48;;;;;;;7.63;2.92;;;4.60;48.30;;;;;;5035936;28;20049;-79
2022/01/23 00:04:14;;;;;;;9.60;3.00;;;4.50;48.80;;;;;;5035248;28;20036;-82
2022/01/23 00:06:39;;;;;;;6.72;3.80;;;4.70;48.10;;;;;;5027083;28;20037;-84
2022/01/23 00:09:05;;;;;;;8.32;3.95;;;4.80;48.70;;;;;;5036038;28;20021;-84
2022/01/23 00:11:35;;;;;;;8.50;2.95;;;4.90;48.20;;;;;;5036076;28;20029;-79
2022/01/23 00:19:14;;;;;;;6.82;2.50;;;4.40;48.80;;;;;;5020170;28;20151;-79
2022/01/23 00:21:57;;;;;;;7.15;3.22;;;4.30;49.40;;;;;;5035194;28;20037;-82
2022/01/23 00:32:43;;;;;;;5.88;2.70;;;4.60;48.50;;;;;;5003045;28;20190;-84
2022/01/23 00:35:09;;;;;;;7.63;2.92;;;4.20;48.80;;;;;;5015476;28;20113;-83
2022/01/23 00:37:34;;;;;;;6.78;2.90;;;3.80;49.70;;;;;;5014709;28;20038;-80
2022/01/23 00:40:00;;;;;;;5.80;2.63;;;3.90;50.50;;;;;;5015472;28;20041;-80
2022/01/23 00:42:27;;;;;;;7.50;3.05;;;4.20;50.20;;;;;;4998575;28;20041;-81
2022/01/23 00:45:25;;;;;;;6.05;2.72;;;4.30;49.60;;;;;;4998484;28;20026;-84
2022/01/23 00:47:51;;;;;;;6.13;3.10;;;4.20;49.40;;;;;;5014993;28;20553;-81
2022/01/23 00:50:17;;;;;;;6.35;2.65;;;4.50;48.60;;;;;;4979131;28;20177;-80
2022/01/23 00:52:42;;;;;;;6.10;2.65;;;4.20;49.40;;;;;;4995374;28;20429;-81
2022/01/23 00:55:08;;;;;;;5.50;2.80;;;4.20;49.30;;;;;;5001548;28;20049;-83
2022/01/23 00:57:34;;;;;;;6.35;2.67;;;4.40;49.10;;;;;;5014448;28;20659;-81
2022/01/23 01:00:02;;;;;;;6.63;2.70;;;4.60;48.70;;;;;;5013416;28;20034;-82
2022/01/23 01:02:28;;;;;;;7.63;2.80;;;4.60;48.10;;;;;;5014275;28;20100;-80
2022/01/23 01:04:54;;;;;;;5.10;2.60;;;4.70;48.30;;;;;;5065987;28;20039;-83
2022/01/23 01:07:19;;;;;;;5.75;3.08;;;4.80;48.20;;;;;;5076272;28;20028;-81
2022/01/23 01:09:49;;;;;;;6.35;2.80;;;5.00;47.90;;;;;;5058033;28;20028;-83
2022/01/23 01:12:23;;;;;;;7.57;3.00;;;5.20;47.20;;;;;;5058655;28;20024;-85
2022/01/23 01:35:54;;;;;;;8.00;2.83;;;4.10;50.00;;;;;;5075853;28;20029;-80
2022/01/23 01:38:19;;;;;;;6.10;2.78;;;4.50;49.10;;;;;;5074148;28;20013;-80
2022/01/23 01:40:45;;;;;;;5.60;2.85;;;4.60;48.60;;;;;;5057641;28;20036;-81
2022/01/23 01:43:13;;;;;;;7.53;2.90;;;4.50;48.90;;;;;;5075072;28;20033;-82
2022/01/23 01:45:41;;;;;;;6.80;2.70;;;4.30;49.00;;;;;;5057446;28;20048;-81
2022/01/23 01:48:06;;;;;;;5.78;2.83;;;4.50;48.90;;;;;;5075531;28;20080;-84
2022/01/23 01:50:45;;;;;;;5.75;2.65;;;4.50;48.90;;;;;;5057001;28;20174;-82
2022/01/23 01:53:12;;;;;;;6.20;3.10;;;4.40;48.50;;;;;;5057563;28;20029;-82
2022/01/23 01:55:50;;;;;;;8.18;3.17;;;4.30;49.00;;;;;;5057902;28;20020;-82
2022/01/23 01:59:09;;;;;;;9.57;3.17;;;4.30;49.10;;;;;;5075740;28;20050;-85
2022/01/23 02:25:12;;;;;;;4.88;2.72;;;3.50;50.90;;;;;;5073000;28;20063;-82
2022/01/23 02:57:51;;;;;;;5.75;2.70;;;3.80;50.30;;;;;;5073372;28;20096;-82
2022/01/23 03:00:19;;;;;;;6.88;2.88;;;3.80;50.10;;;;;;5055602;28;20028;-84
2022/01/23 03:02:51;;;;;;;7.47;3.25;;;3.50;50.50;;;;;;5056069;28;20704;-86
2022/01/23 03:10:39;;;;;;;6.05;3.00;;;3.80;50.00;;;;;;5073726;28;20127;-81
2022/01/23 03:13:38;;;;;;;6.75;3.00;;;4.00;49.80;;;;;;5056059;28;20032;-85
2022/01/23 03:16:13;;;;;;;6.07;2.85;;;4.10;50.20;;;;;;5073669;28;20450;-82
2022/01/23 03:24:23;;;;;;;8.55;2.90;;;4.10;49.70;;;;;;5064832;28;20077;-84
2022/01/23 03:29:27;;;;;;;6.00;2.92;;;4.50;49.30;;;;;;5073660;28;20467;-83
2022/01/23 03:34:23;;;;;;;7.55;3.42;;;4.60;48.70;;;;;;5073791;28;20036;-84
2022/01/23 03:36:49;;;;;;;6.63;3.05;;;4.50;49.10;;;;;;5055637;28;20027;-84
2022/01/23 03:39:15;;;;;;;7.35;3.30;;;4.50;49.90;;;;;;5055879;28;20028;-81
2022/01/23 03:41:42;;;;;;;7.55;3.03;;;4.70;49.20;;;;;;5073333;28;20035;-81
2022/01/23 03:44:11;;;;;;;8.57;2.70;;;4.10;49.70;;;;;;5055598;28;20073;-81
2022/01/23 03:46:50;;;;;;;6.28;2.72;;;3.70;50.70;;;;;;5055440;28;20470;-85
2022/01/23 03:49:34;;;;;;;6.60;2.88;;;3.90;50.80;;;;;;5055465;28;20649;-84
2022/01/23 03:52:05;;;;;;;8.88;2.90;;;4.30;50.10;;;;;;5055543;28;20413;-83
2022/01/23 03:54:32;;;;;;;8.13;2.97;;;4.10;50.30;;;;;;5073598;28;20016;-81
2022/01/23 03:57:00;;;;;;;5.88;2.80;;;4.20;50.30;;;;;;5055570;28;20472;-83
2022/01/23 03:59:26;;;;;;;7.57;3.28;;;4.50;50.00;;;;;;5055138;28;20024;-84
2022/01/23 04:01:52;;;;;;;7.43;2.88;;;4.60;49.80;;;;;;5055157;28;20078;-84
2022/01/23 04:04:38;;;;;;;5.65;2.53;;;4.50;49.70;;;;;;5055623;28;20032;-81
2022/01/23 04:07:13;;;;;;;6.38;2.80;;;4.60;49.00;;;;;;5055399;28;20024;-83
2022/01/23 04:09:40;;;;;;;5.90;2.80;;;4.40;49.40;;;;;;5055246;28;20499;-82
2022/01/23 04:12:08;;;;;;;6.95;2.90;;;4.30;49.70;;;;;;5055277;28;20102;-81
2022/01/23 04:14:36;;;;;;;5.75;2.78;;;4.50;48.80;;;;;;5055073;28;20479;-84
2022/01/23 04:19:58;;;;;;;6.18;3.05;;;4.60;49.30;;;;;;5072865;28;20025;-82
2022/01/23 04:33:29;;;;;;;6.07;2.72;;;5.10;48.00;;;;;;5072414;28;20505;-84
2022/01/23 05:00:23;;;;;;;8.57;2.70;;;5.00;46.50;;;;;;5076136;28;20074;-82
2022/01/23 05:03:37;;;;;;;6.28;2.75;;;4.20;48.50;;;;;;5058086;28;20127;-83
2022/01/23 05:05:37;;;;;;;7.10;2.80;;;4.30;48.30;;;;;;5073742;28;20025;-81
2022/01/23 05:08:08;;;;;;;7.30;3.00;;;4.60;48.20;;;;;;5055938;28;20021;-80
2022/01/23 05:10:34;;;;;;;6.18;2.72;;;4.90;47.90;;;;;;5038484;28;20476;-82
2022/01/23 05:13:01;;;;;;;9.55;2.88;;;4.60;47.40;;;;;;5037949;28;20036;-82
2022/01/23 05:15:27;;;;;;;7.03;3.05;;;4.60;47.90;;;;;;5056216;28;20040;-82
2022/01/23 05:17:53;;;;;;;7.35;3.33;;;4.80;47.50;;;;;;5038647;28;20383;-82
2022/01/23 05:20:20;;;;;;;8.18;3.55;;;4.80;47.10;;;;;;5038013;28;20045;-81
2022/01/23 05:22:48;;;;;;;6.22;2.78;;;4.50;47.30;;;;;;5038625;28;20041;-82
2022/01/23 05:27:42;;;;;;;8.32;3.42;;;4.80;47.30;;;;;;5056309;28;20025;-80
2022/01/23 05:30:09;;;;;;;6.65;3.00;;;4.40;48.10;;;;;;5055624;28;20070;-83
2022/01/23 05:32:39;;;;;;;6.38;3.10;;;4.30;48.40;;;;;;5037768;28;20051;-82
2022/01/23 05:35:06;;;;;;;8.13;3.72;;;4.40;48.10;;;;;;5038110;28;20498;-82
2022/01/23 05:37:33;;;;;;;6.97;2.97;;;4.60;47.90;;;;;;5038188;28;20031;-81
2022/01/23 05:39:59;;;;;;;7.07;3.05;;;4.60;48.00;;;;;;5038763;28;20460;-82
2022/01/23 05:42:25;;;;;;;6.03;2.88;;;4.20;48.30;;;;;;5053498;28;20045;-83
2022/01/23 05:44:51;;;;;;;6.03;2.55;;;4.10;48.80;;;;;;5035895;28;20021;-82
2022/01/23 05:47:16;;;;;;;7.72;3.28;;;4.20;49.10;;;;;;5035438;28;20463;-82
2022/01/23 05:49:42;;;;;;;8.35;2.83;;;4.50;48.30;;;;;;5034889;28;20022;-83
2022/01/23 05:52:08;;;;;;;6.45;3.20;;;4.80;47.90;;;;;;5034064;28;20067;-82
2022/01/23 05:54:34;;;;;;;7.03;3.17;;;4.80;47.40;;;;;;5051492;28;20056;-81
2022/01/23 05:57:00;;;;;;;5.85;2.80;;;4.80;47.80;;;;;;5035493;28;20060;-81
2022/01/23 05:59:25;;;;;;;8.23;2.90;;;4.70;47.60;;;;;;5035570;28;20043;-83
2022/01/23 06:01:52;;;;;;;7.32;2.97;;;4.90;48.20;;;;;;5053217;28;20442;-81
2022/01/23 06:04:22;;;;;;;7.63;3.00;;;5.10;47.80;;;;;;5035660;28;20029;-82
2022/01/23 06:06:48;;;;;;;5.57;2.78;;;5.20;47.70;;;;;;5037118;28;20040;-84
2022/01/23 06:09:15;;;;;;;6.18;3.20;;;5.30;47.10;;;;;;5036720;28;20021;-82
2022/01/23 06:11:41;;;;;;;6.75;2.90;;;5.20;47.10;;;;;;5055231;28;20049;-81
2022/01/23 06:14:08;;;;;;;9.55;3.00;;;5.20;47.30;;;;;;5037189;28;20031;-82
2022/01/23 06:16:35;;;;;;;4.80;2.60;;;5.30;47.30;;;;;;5054605;28;20052;-84
2022/01/23 06:19:01;;;;;;;5.35;2.67;;;5.40;47.40;;;;;;5037029;28;20467;-81
2022/01/23 06:21:27;;;;;;;7.30;3.00;;;5.70;46.50;;;;;;5036519;28;20070;-81
2022/01/23 06:26:39;;;;;;;9.20;3.40;;;5.70;46.40;;;;;;5054438;28;20017;-81
2022/01/23 06:29:04;;;;;;;9.20;3.63;;;6.00;46.10;;;;;;5036574;28;20017;-81
2022/01/23 06:31:31;;;;;;;8.05;3.20;;;6.20;45.70;;;;;;5054711;28;20122;-81
2022/01/23 06:33:58;;;;;;;6.22;3.40;;;5.80;46.00;;;;;;5036209;28;20028;-83
2022/01/23 06:36:24;;;;;;;8.48;3.20;;;5.90;46.30;;;;;;5036544;28;20029;-80
2022/01/23 06:38:49;;;;;;;12.57;5.35;;;6.30;46.00;;;;;;5036348;28;20471;-82
2022/01/23 06:41:15;;;;;;;79.97;29.33;;;6.50;45.50;;;;;;5036264;28;20434;-83
2022/01/23 06:43:41;;;;;;;19.83;10.10;;;6.70;44.70;;;;;;5036254;28;20434;-84
2022/01/23 06:46:06;;;;;;;10.55;4.72;;;6.90;44.60;;;;;;4701890;28;10000370;-81
2022/01/23 06:48:32;;;;;;;9.52;3.47;;;6.70;44.60;;;;;;5053060;28;20033;-81
2022/01/23 06:50:58;;;;;;;18.38;7.60;;;6.70;44.80;;;;;;5052655;28;20078;-80
2022/01/23 06:53:24;;;;;;;10.60;4.45;;;6.90;45.10;;;;;;5052854;28;20035;-81
2022/01/23 06:55:49;;;;;;;9.23;3.25;;;7.10;44.60;;;;;;5069702;28;20060;-81
2022/01/23 06:58:15;;;;;;;6.85;3.03;;;7.10;44.50;;;;;;5051742;28;20182;-80
2022/01/23 07:00:41;;;;;;;7.68;3.00;;;6.80;44.90;;;;;;5052438;28;20367;-80
2022/01/23 07:03:06;;;;;;;7.85;3.08;;;6.60;44.50;;;;;;5051966;28;20088;-80
2022/01/23 07:05:32;;;;;;;7.15;3.33;;;6.40;44.40;;;;;;5051957;28;20031;-80
2022/01/23 07:07:58;;;;;;;8.13;4.57;;;6.10;45.10;;;;;;5069328;28;20033;-80
2022/01/23 07:10:25;;;;;;;7.75;3.35;;;6.30;44.80;;;;;;5052120;28;20051;-80
2022/01/23 07:12:51;;;;;;;6.18;3.00;;;6.20;44.90;;;;;;5052222;28;20028;-79
2022/01/23 07:15:16;;;;;;;7.47;3.97;;;6.30;45.00;;;;;;5070624;28;20105;-78
2022/01/23 07:17:43;;;;;;;10.65;6.15;;;6.30;45.00;;;;;;5069994;28;20483;-78
2022/01/23 07:20:09;;;;;;;14.02;9.00;;;6.40;45.00;;;;;;5069236;28;20049;-80
2022/01/23 07:22:35;;;;;;;10.85;4.75;;;6.50;44.60;;;;;;5069960;28;20040;-78
2022/01/23 07:25:03;;;;;;;11.70;6.28;;;6.40;44.80;;;;;;5051891;28;20024;-79
2022/01/23 07:27:34;;;;;;;10.63;4.05;;;6.40;44.90;;;;;;5070381;28;20039;-81
2022/01/23 07:30:00;;;;;;;7.55;3.40;;;6.40;45.00;;;;;;5070626;28;20028;-79
2022/01/23 07:32:26;;;;;;;7.18;3.42;;;6.10;45.40;;;;;;5052243;28;20029;-79
2022/01/23 07:34:51;;;;;;;8.80;5.30;;;5.80;45.70;;;;;;5060850;28;20085;-79
2022/01/23 07:37:17;;;;;;;11.13;4.70;;;5.20;47.00;;;;;;5034911;28;20502;-84
2022/01/23 07:39:43;;;;;;;9.93;4.65;;;5.30;47.20;;;;;;5052888;28;20041;-81
2022/01/23 07:42:09;;;;;;;7.32;3.60;;;5.60;46.90;;;;;;5034236;28;20556;-82
2022/01/23 07:44:34;;;;;;;8.13;4.25;;;5.40;47.00;;;;;;5034239;28;20025;-81
2022/01/23 07:47:04;;;;;;;9.60;3.60;;;5.40;47.70;;;;;;5039373;28;20497;-79
2022/01/23 07:49:30;;;;;;;9.77;3.97;;;5.50;46.90;;;;;;5051677;28;20044;-78
2022/01/23 07:51:57;;;;;;;17.80;6.93;;;5.90;47.00;;;;;;5048008;28;20082;-79
2022/01/23 07:54:23;;;;;;;10.57;4.30;;;6.20;46.70;;;;;;5054467;28;20114;-80
2022/01/23 07:56:49;;;;;;;218.73;110.13;;;6.50;45.70;;;;;;5054373;28;20127;-82
2022/01/23 07:59:15;;;;;;;42.22;38.05;;;6.30;46.20;;;;;;5054388;28;20023;-79
2022/01/23 08:01:40;;;;;;;27.05;20.00;;;6.30;46.50;;;;;;5054051;28;20036;-80
2022/01/23 08:04:07;;;;;;;15.20;9.80;;;6.00;47.10;;;;;;5054143;28;20017;-82
2022/01/23 08:06:40;;;;;;;9.15;4.97;;;6.10;47.00;;;;;;5054378;28;20082;-83
2022/01/23 08:09:06;;;;;;;60.47;41.70;;;6.50;46.20;;;;;;5072024;28;20040;-80
2022/01/23 08:11:32;;;;;;;141.32;97.15;;;7.00;46.00;;;;;;5076022;28;20078;-81
2022/01/23 08:13:57;;;;;;;26.23;19.08;;;7.30;44.70;;;;;;5057967;28;20037;-79
2022/01/23 08:16:23;;;;;;;15.98;10.73;;;7.30;45.00;;;;;;5076200;28;20021;-82
2022/01/23 08:18:48;;;;;;;14.18;9.40;;;7.00;44.70;;;;;;5057909;28;20043;-80
2022/01/23 08:21:14;;;;;;;16.27;11.05;;;6.90;45.60;;;;;;5057252;28;20150;-86
2022/01/23 08:23:40;;;;;;;23.70;21.27;;;6.70;45.90;;;;;;5058424;28;20024;-85
2022/01/23 08:26:09;;;;;;;21.48;16.90;;;6.80;45.50;;;;;;5058634;28;20035;-85
2022/01/23 08:28:35;;;;;;;181.18;96.38;;;7.30;45.10;;;;;;5075666;28;20024;-81
2022/01/23 08:31:01;;;;;;;100.65;54.88;;;7.50;44.50;;;;;;5075937;28;20541;-80
2022/01/23 08:33:33;;;;;;;10.45;4.80;;;7.50;44.70;;;;;;5058254;28;20131;-80
2022/01/23 08:35:59;;;;;;;7.25;4.65;;;7.30;44.80;;;;;;5058016;28;20380;-84
2022/01/23 08:38:25;;;;;;;16.45;11.98;;;7.50;45.40;;;;;;5058196;28;20029;-87
2022/01/23 08:43:35;;;;;;;14.88;9.23;;;7.70;44.40;;;;;;5076559;28;20535;-79
2022/01/23 08:46:01;;;;;;;19.73;12.57;;;7.80;44.90;;;;;;5057202;28;20021;-87
2022/01/23 08:48:26;;;;;;;14.68;8.60;;;7.50;44.40;;;;;;5057497;28;20079;-79
2022/01/23 08:50:52;;;;;;;8.18;4.63;;;7.70;45.00;;;;;;5075135;28;20394;-78
2022/01/23 08:53:18;;;;;;;14.70;7.45;;;7.30;44.90;;;;;;5057540;28;20029;-83
2022/01/23 08:55:43;;;;;;;12.60;6.45;;;7.40;45.00;;;;;;5052222;28;20406;-78
2022/01/23 08:58:09;;;;;;;9.18;5.50;;;7.20;45.00;;;;;;5036313;28;20568;-77
2022/01/23 09:00:35;;;;;;;9.98;6.50;;;7.50;44.90;;;;;;5036990;28;20028;-78
2022/01/23 09:03:01;;;;;;;18.92;12.18;;;7.80;44.80;;;;;;5054137;28;20112;-78
2022/01/23 09:05:28;;;;;;;14.50;8.80;;;7.90;44.50;;;;;;5036207;28;20395;-77
2022/01/23 09:07:54;;;;;;;15.85;10.23;;;7.50;44.50;;;;;;5036174;28;20039;-79
2022/01/23 09:10:28;;;;;;;87.95;23.25;;;7.60;45.10;;;;;;5054708;28;20490;-80
2022/01/23 09:13:09;;;;;;;12.20;7.32;;;8.20;45.10;;;;;;5037086;28;20064;-84
2022/01/23 09:15:35;;;;;;;14.68;6.95;;;8.70;44.00;;;;;;5037071;28;20032;-79
2022/01/23 09:18:02;;;;;;;13.30;8.98;;;8.90;44.10;;;;;;5036968;28;20024;-84
2022/01/23 09:20:28;;;;;;;10.38;4.47;;;9.00;42.90;;;;;;5035800;28;20075;-79
2022/01/23 09:22:54;;;;;;;10.32;4.97;;;9.00;42.90;;;;;;5036032;28;20391;-80
2022/01/23 09:25:20;;;;;;;9.10;6.47;;;8.70;43.30;;;;;;5037084;28;20063;-86
2022/01/23 09:27:46;;;;;;;13.00;8.85;;;8.80;43.60;;;;;;5054910;28;20029;-84
2022/01/23 09:30:20;;;;;;;23.88;18.75;;;8.90;42.20;;;;;;5036994;28;20032;-87
2022/01/23 09:32:47;;;;;;;13.75;9.48;;;8.40;42.50;;;;;;5054332;28;20475;-80
2022/01/23 09:35:15;;;;;;;12.05;8.10;;;8.00;43.10;;;;;;5055042;28;20033;-87
2022/01/23 09:37:42;;;;;;;15.63;8.40;;;8.60;43.40;;;;;;5036584;28;20057;-78
2022/01/23 09:40:08;;;;;;;100.88;69.88;;;8.70;43.10;;;;;;5036585;28;20032;-78
2022/01/23 09:42:44;;;;;;;63.83;40.88;;;8.70;42.70;;;;;;5036327;28;20064;-88
2022/01/23 09:45:12;;;;;;;49.33;34.25;;;8.80;43.20;;;;;;5046220;28;20190;-78
2022/01/23 09:47:38;;;;;;;58.65;42.65;;;8.90;42.60;;;;;;5035396;28;20025;-80
2022/01/23 09:50:07;;;;;;;14.55;10.55;;;8.90;42.60;;;;;;5035517;28;20028;-78
2022/01/23 09:52:35;;;;;;;16.20;11.38;;;8.60;43.10;;;;;;5053811;28;20059;-79
2022/01/23 09:55:08;;;;;;;17.15;8.68;;;8.60;43.30;;;;;;5036232;28;20053;-80
2022/01/23 09:57:40;;;;;;;16.98;11.23;;;8.90;42.90;;;;;;5053926;28;20017;-80
2022/01/23 10:00:11;;;;;;;199.63;108.05;;;8.90;42.80;;;;;;5054958;28;20033;-81
2022/01/23 10:02:37;;;;;;;91.82;50.70;;;8.80;42.40;;;;;;5036451;28;20082;-80
2022/01/23 10:05:05;;;;;;;78.63;48.90;;;8.60;43.00;;;;;;5036145;28;20134;-81
2022/01/23 10:07:38;;;;;;;20.33;12.60;;;9.10;42.70;;;;;;5036019;28;20119;-81
2022/01/23 10:10:16;;;;;;;16.08;11.70;;;8.30;43.00;;;;;;5053968;28;20449;-84
2022/01/23 10:12:47;;;;;;;32.95;19.50;;;8.30;43.80;;;;;;5036660;28;20033;-79
2022/01/23 10:15:13;;;;;;;42.20;24.48;;;8.30;43.80;;;;;;5036251;28;20083;-81
2022/01/23 10:17:40;;;;;;;50.17;28.27;;;8.60;43.50;;;;;;5035608;28;20021;-80
2022/01/23 10:20:07;;;;;;;17.80;10.50;;;8.80;42.70;;;;;;5035781;28;20414;-85
2022/01/23 10:22:35;;;;;;;15.20;8.35;;;8.90;43.50;;;;;;5035221;28;20043;-80
2022/01/23 10:25:30;;;;;;;47.58;23.75;;;8.60;43.20;;;;;;5037040;28;20021;-87
2022/01/23 10:28:00;;;;;;;26.92;17.73;;;9.00;43.70;;;;;;5054389;28;20062;-82
2022/01/23 10:30:30;;;;;;;8.82;5.18;;;9.60;43.00;;;;;;5036287;28;20028;-82
2022/01/23 10:33:04;;;;;;;16.35;11.23;;;9.20;42.70;;;;;;5052819;28;20029;-86
2022/01/23 10:35:33;;;;;;;19.15;13.52;;;9.30;43.40;;;;;;5053425;28;20028;-78
2022/01/23 10:38:10;;;;;;;17.83;9.43;;;9.80;42.10;;;;;;5053637;28;20614;-79
2022/01/23 10:40:47;;;;;;;23.70;16.25;;;9.60;42.20;;;;;;5053481;28;20036;-81
2022/01/23 10:48:42;;;;;;;36.35;28.70;;;9.80;41.20;;;;;;5053184;28;20533;-80
2022/01/23 10:51:21;;;;;;;33.78;28.00;;;9.70;41.80;;;;;;5040197;28;20474;-81
2022/01/23 10:54:21;;;;;;;19.45;9.90;;;9.90;41.70;;;;;;5055762;28;20348;-88
2022/01/23 10:56:49;;;;;;;23.63;14.73;;;9.80;41.00;;;;;;5074454;28;20023;-86
2022/01/23 10:59:15;;;;;;;44.20;28.35;;;9.40;41.90;;;;;;5074247;28;20081;-89
2022/01/23 11:02:00;;;;;;;71.07;44.40;;;9.90;40.90;;;;;;5073291;28;20093;-83
2022/01/23 11:04:25;;;;;;;31.55;19.90;;;10.10;40.40;;;;;;5074578;28;20452;-80
2022/01/23 11:06:59;;;;;;;24.63;15.65;;;9.20;41.60;;;;;;5055897;28;20040;-85
2022/01/23 11:09:31;;;;;;;52.15;28.63;;;8.80;42.90;;;;;;5054226;28;20056;-79
2022/01/23 11:12:13;;;;;;;17.80;8.88;;;8.90;41.60;;;;;;5071415;28;20054;-80
2022/01/23 11:17:26;;;;;;;15.43;9.20;;;9.20;41.80;;;;;;5072567;28;20074;-78
2022/01/23 11:19:56;;;;;;;17.45;13.13;;;10.30;40.70;;;;;;5054029;28;20044;-81
2022/01/23 11:22:28;;;;;;;14.68;10.18;;;10.30;40.40;;;;;;5065694;28;20162;-88
2022/01/23 11:25:10;;;;;;;20.17;15.75;;;11.10;40.90;;;;;;5054049;28;20032;-81
2022/01/23 11:27:40;;;;;;;12.20;8.10;;;11.80;39.10;;;;;;5055212;28;20052;-81
2022/01/23 11:30:13;;;;;;;9.55;4.72;;;12.00;38.80;;;;;;5072668;28;20092;-80
2022/01/23 11:32:41;;;;;;;10.45;6.82;;;11.50;38.30;;;;;;5054821;28;20035;-79
2022/01/23 11:35:12;;;;;;;8.30;4.25;;;10.10;39.30;;;;;;5054063;28;20044;-78
2022/01/23 11:37:47;;;;;;;14.07;9.38;;;9.00;41.10;;;;;;5053133;28;20028;-78
2022/01/23 11:51:20;;;;;;;10.63;5.53;;;7.60;44.20;;;;;;5072527;28;20031;-79
2022/01/23 11:53:46;;;;;;;30.50;20.60;;;7.90;43.80;;;;;;5070890;28;20107;-84
2022/01/23 11:56:48;;;;;;;9.00;4.60;;;8.10;43.90;;;;;;5071684;28;20048;-79
2022/01/23 11:59:39;;;;;;;16.73;10.18;;;8.10;44.00;;;;;;5072398;28;20029;-88
2022/01/23 12:02:19;;;;;;;10.50;4.30;;;8.90;43.70;;;;;;5054390;28;20048;-83
2022/01/23 12:05:22;;;;;;;8.48;4.40;;;8.60;42.60;;;;;;5065338;28;20096;-84
2022/01/23 12:08:41;;;;;;;10.98;5.43;;;8.10;43.30;;;;;;5051628;28;20036;-86
2022/01/23 12:11:23;;;;;;;12.23;5.13;;;7.40;44.30;;;;;;4950996;29;20042;-83
2022/01/23 12:17:03;;;;;;;8.65;5.43;;;7.00;45.30;;;;;;4947089;29;20039;-85
2022/01/23 12:19:50;;;;;;;13.70;6.93;;;7.00;45.00;;;;;;4934965;29;20031;-90
2022/01/23 12:22:35;;;;;;;9.55;5.60;;;7.30;44.70;;;;;;4620676;28;10000256;-83
2022/01/23 12:25:10;;;;;;;12.32;8.40;;;7.90;43.80;;;;;;4971924;28;20038;-79
2022/01/23 12:27:35;;;;;;;10.05;5.35;;;7.90;44.40;;;;;;4955145;28;20027;-80
2022/01/23 12:30:17;;;;;;;80.15;33.63;;;7.90;44.20;;;;;;4973157;28;20025;-85
2022/01/23 12:32:43;;;;;;;14.23;9.40;;;7.90;44.30;;;;;;4956924;28;20086;-83
2022/01/23 12:35:11;;;;;;;193.63;108.15;;;8.20;43.50;;;;;;4957223;28;20050;-86
2022/01/23 12:37:55;;;;;;;336.35;198.48;;;8.00;44.20;;;;;;4972669;28;20126;-91
2022/01/23 12:40:34;;;;;;;15.63;9.40;;;8.40;43.80;;;;;;4956412;28;20042;-87
2022/01/23 12:43:11;;;;;;;38.10;28.80;;;8.80;43.40;;;;;;4972515;28;20047;-81
2022/01/23 12:46:08;;;;;;;16.27;11.63;;;9.30;43.60;;;;;;5026515;28;20035;-82
2022/01/23 12:48:34;;;;;;;10.40;5.60;;;9.50;43.00;;;;;;5055439;28;20040;-83
2022/01/23 12:51:08;;;;;;;15.35;7.20;;;9.60;42.30;;;;;;5055002;28;20020;-81
2022/01/23 12:53:46;;;;;;;178.20;68.88;;;9.40;42.30;;;;;;5073132;28;20020;-83
2022/01/23 12:56:14;;;;;;;14.85;7.25;;;8.80;43.50;;;;;;5055210;28;20037;-86
2022/01/23 12:58:41;;;;;;;8.50;4.82;;;8.90;42.90;;;;;;5076478;28;20031;-80
2022/01/23 13:01:25;;;;;;;9.95;4.93;;;8.10;43.10;;;;;;5058289;28;20021;-81
2022/01/23 13:04:04;;;;;;;10.70;5.47;;;7.90;44.40;;;;;;5058648;28;20048;-86
2022/01/23 13:06:34;;;;;;;10.35;5.22;;;7.70;44.60;;;;;;5058060;28;20041;-80
2022/01/23 13:09:34;;;;;;;10.50;5.43;;;7.60;45.40;;;;;;5058520;28;20028;-83
2022/01/23 13:12:10;;;;;;;16.50;9.55;;;7.50;45.10;;;;;;5073382;28;20069;-89
2022/01/23 13:14:54;;;;;;;10.07;4.95;;;8.00;44.80;;;;;;5059013;28;20486;-82
2022/01/23 13:31:57;;;;;;;8.98;5.07;;;8.60;42.90;;;;;;5076207;28;20082;-82
2022/01/23 13:34:36;;;;;;;8.65;4.80;;;8.50;43.00;;;;;;5060743;28;20406;-82
2022/01/23 13:37:13;;;;;;;40.65;29.50;;;8.60;42.80;;;;;;5057892;28;20031;-80
2022/01/23 13:39:59;;;;;;;68.07;49.42;;;8.40;42.40;;;;;;5057923;28;20032;-87
2022/01/23 13:53:23;;;;;;;10.07;4.68;;;9.00;41.80;;;;;;5076031;28;20036;-86
2022/01/23 13:58:37;;;;;;;13.43;6.95;;;8.50;42.10;;;;;;5075599;28;20027;-83
2022/01/23 14:01:31;;;;;;;8.43;4.40;;;8.20;42.90;;;;;;5075454;28;20356;-82
2022/01/23 14:03:57;;;;;;;11.90;5.85;;;8.10;42.80;;;;;;5075269;28;20048;-86
2022/01/23 14:06:25;;;;;;;9.30;5.35;;;8.30;42.90;;;;;;5057241;28;20055;-83
2022/01/23 14:09:09;;;;;;;7.32;4.00;;;8.30;42.50;;;;;;5056977;28;20116;-84
2022/01/23 14:11:36;;;;;;;10.23;4.93;;;8.60;42.20;;;;;;5057034;28;20028;-83
2022/01/23 14:14:15;;;;;;;20.75;10.02;;;8.90;42.00;;;;;;5057866;28;20016;-83
2022/01/23 14:16:42;;;;;;;26.75;17.48;;;8.80;41.90;;;;;;5075070;28;20538;-82
2022/01/23 14:19:21;;;;;;;33.15;16.45;;;8.30;42.50;;;;;;5056938;28;20416;-83
2022/01/23 14:21:53;;;;;;;8.75;4.28;;;8.00;42.40;;;;;;5053657;28;20488;-84
2022/01/23 14:24:25;;;;;;;9.93;4.78;;;8.10;42.90;;;;;;5036570;28;20032;-85
2022/01/23 14:27:09;;;;;;;8.90;5.13;;;8.40;42.50;;;;;;5050495;28;20031;-90
2022/01/23 14:29:48;;;;;;;9.95;5.75;;;7.90;43.40;;;;;;5063326;28;20379;-81
2022/01/23 14:32:23;;;;;;;23.35;15.23;;;8.20;43.30;;;;;;5035576;28;20025;-83
2022/01/23 14:34:49;;;;;;;7.68;4.10;;;8.40;43.10;;;;;;5035526;28;20116;-81
2022/01/23 14:37:25;;;;;;;6.55;3.50;;;8.40;42.50;;;;;;5067287;28;20104;-81
2022/01/23 14:40:06;;;;;;;7.90;3.85;;;8.00;43.20;;;;;;5055646;28;20036;-84
2022/01/23 14:42:36;;;;;;;14.10;8.70;;;7.80;43.40;;;;;;5072478;28;20037;-85
2022/01/23 14:45:07;;;;;;;10.93;5.93;;;7.90;43.80;;;;;;5054533;28;20027;-82
2022/01/23 14:47:38;;;;;;;9.20;4.47;;;8.00;43.60;;;;;;5054652;28;20021;-80
2022/01/23 14:50:12;;;;;;;13.77;8.00;;;8.10;43.20;;;;;;5048469;28;20063;-85
2022/01/23 14:52:41;;;;;;;40.00;20.65;;;8.50;43.30;;;;;;5035369;28;20029;-80
2022/01/23 14:55:08;;;;;;;138.90;70.78;;;7.90;43.60;;;;;;5051665;28;20021;-84
2022/01/23 14:57:35;;;;;;;32.03;17.23;;;8.00;43.90;;;;;;5053990;28;20041;-85
2022/01/23 15:00:04;;;;;;;34.15;18.80;;;8.30;43.80;;;;;;5053583;28;20021;-86
2022/01/23 15:02:29;;;;;;;310.90;147.45;;;8.60;43.60;;;;;;5052388;28;20041;-81
2022/01/23 15:04:57;;;;;;;9.23;6.07;;;8.60;42.90;;;;;;5071038;28;20031;-79
2022/01/23 15:07:22;;;;;;;34.30;21.25;;;8.00;43.60;;;;;;5072280;28;20060;-78
2022/01/23 15:09:50;;;;;;;23.90;17.63;;;7.70;44.40;;;;;;5073118;28;20108;-79
2022/01/23 15:12:17;;;;;;;54.45;45.40;;;7.60;44.50;;;;;;5046971;28;20055;-83
2022/01/23 15:14:43;;;;;;;58.35;40.60;;;8.00;44.40;;;;;;5052844;28;20095;-81
2022/01/23 15:17:09;;;;;;;116.05;83.20;;;8.40;44.20;;;;;;5034978;28;20434;-83
2022/01/23 15:19:35;;;;;;;27.60;14.25;;;8.50;43.90;;;;;;5044955;28;20545;-81
2022/01/23 15:22:01;;;;;;;84.93;52.17;;;8.60;43.70;;;;;;5053007;28;20044;-84
2022/01/23 15:24:28;;;;;;;63.92;46.00;;;8.70;43.30;;;;;;5044586;28;20502;-82
2022/01/23 15:26:54;;;;;;;50.80;34.95;;;8.80;43.10;;;;;;5052361;28;20025;-80
2022/01/23 15:29:19;;;;;;;33.33;24.52;;;8.80;43.00;;;;;;5043826;28;20036;-81
2022/01/23 15:31:47;;;;;;;42.78;29.70;;;8.80;43.10;;;;;;5054251;28;20050;-89
2022/01/23 15:34:15;;;;;;;41.50;23.77;;;8.90;43.40;;;;;;5043313;28;20044;-78
2022/01/23 15:36:41;;;;;;;80.45;44.47;;;9.00;42.80;;;;;;5034518;28;20471;-86
2022/01/23 15:39:07;;;;;;;152.10;58.25;;;9.20;42.90;;;;;;5040429;28;20020;-86
2022/01/23 15:41:34;;;;;;;312.52;124.78;;;9.40;42.50;;;;;;5039539;28;20033;-87
2022/01/23 15:43:59;;;;;;;43.72;25.17;;;9.40;42.20;;;;;;5071786;28;20085;-87
2022/01/23 15:46:25;;;;;;;42.38;23.45;;;9.30;42.40;;;;;;5037588;28;20437;-82
2022/01/23 15:48:51;;;;;;;30.73;22.10;;;9.30;43.00;;;;;;5038480;28;20119;-78
2022/01/23 15:51:17;;;;;;;47.67;34.65;;;9.30;43.00;;;;;;5044449;28;20836;-80
2022/01/23 15:53:43;;;;;;;28.77;20.83;;;9.40;42.80;;;;;;5059645;28;20510;-86
2022/01/23 15:56:09;;;;;;;30.40;22.48;;;9.40;42.40;;;;;;5037490;28;20033;-84
2022/01/23 15:58:34;;;;;;;11.80;7.43;;;9.50;42.80;;;;;;5048718;28;20460;-81
2022/01/23 16:01:00;;;;;;;20.98;15.13;;;9.60;42.60;;;;;;5044677;28;20031;-87
2022/01/23 16:03:27;;;;;;;10.85;5.40;;;9.60;43.00;;;;;;5067787;28;20112;-79
2022/01/23 16:05:54;;;;;;;19.05;13.45;;;9.50;42.60;;;;;;5053963;28;20025;-87
2022/01/23 16:08:20;;;;;;;16.90;11.90;;;9.40;43.00;;;;;;5053624;28;20119;-79
2022/01/23 16:10:46;;;;;;;14.27;9.75;;;9.40;43.40;;;;;;5053959;28;20025;-85
2022/01/23 16:13:12;;;;;;;14.65;8.73;;;9.30;43.30;;;;;;5072174;28;20078;-80
2022/01/23 16:15:37;;;;;;;183.85;112.47;;;9.30;43.70;;;;;;5053509;28;20490;-85
2022/01/23 16:18:03;;;;;;;80.63;49.78;;;9.20;43.20;;;;;;5069358;28;20067;-81
2022/01/23 16:20:29;;;;;;;10.10;7.20;;;9.00;43.50;;;;;;5052948;28;20449;-84
2022/01/23 16:22:55;;;;;;;25.42;17.90;;;9.00;43.50;;;;;;5053933;28;20032;-87
2022/01/23 16:25:22;;;;;;;32.70;22.35;;;9.10;43.70;;;;;;5052935;28;20017;-80